createdAt,value
2024-02-05T00:00:29.047Z,13.04
2024-02-05T00:02:57.269Z,13.22
2024-02-05T00:05:24.611Z,13.14
2024-02-05T00:07:54.588Z,12.93
2024-02-05T00:10:24.485Z,13.18
2024-02-05T00:12:51.897Z,13.35
2024-02-05T00:15:19.345Z,13.41
2024-02-05T00:17:46.982Z,13.16
2024-02-05T00:20:14.530Z,13.08
2024-02-05T00:22:43.459Z,13.05
2024-02-05T00:25:11.700Z,13.17
2024-02-05T00:27:39.429Z,13.33
2024-02-05T00:30:07.498Z,13.38
2024-02-05T00:32:35.617Z,13.22
2024-02-05T00:35:03.737Z,13.04
2024-02-05T00:37:31.694Z,13.31
2024-02-05T00:39:59.416Z,13.15
2024-02-05T00:42:26.778Z,13.17
2024-02-05T00:44:54.109Z,13.34
2024-02-05T00:47:21.722Z,12.87
2024-02-05T00:49:49.299Z,12.88
2024-02-05T00:52:16.870Z,12.63
2024-02-05T00:54:44.627Z,12.64
2024-02-05T00:57:12.169Z,12.99
2024-02-05T00:59:39.582Z,13.03
2024-02-05T01:02:07.867Z,12.85
2024-02-05T01:04:35.646Z,13.08
2024-02-05T01:07:03.413Z,13.06
2024-02-05T01:09:31.093Z,12.92
2024-02-05T01:11:58.433Z,12.86
2024-02-05T01:14:25.817Z,12.99
2024-02-05T01:16:53.465Z,12.90
2024-02-05T01:19:21.105Z,12.63
2024-02-05T01:21:48.453Z,12.96
2024-02-05T01:24:16.114Z,12.89
2024-02-05T01:26:43.482Z,12.96
2024-02-05T01:29:11.233Z,12.93
2024-02-05T01:31:43.037Z,12.91
2024-02-05T01:34:10.735Z,12.80
2024-02-05T01:36:38.426Z,13.10
2024-02-05T01:39:06.285Z,12.98
2024-02-05T01:41:34.090Z,13.11
2024-02-05T01:44:01.504Z,13.04
2024-02-05T01:46:31.036Z,13.20
2024-02-05T01:49:01.397Z,12.87
2024-02-05T01:51:33.066Z,12.78
2024-02-05T01:54:00.583Z,12.86
2024-02-05T01:56:33.756Z,13.10
2024-02-05T01:59:01.470Z,12.67
2024-02-05T02:01:29.998Z,12.75
2024-02-05T02:03:58.532Z,12.74
2024-02-05T02:06:26.487Z,12.82
2024-02-05T02:08:53.902Z,12.62
2024-02-05T02:11:21.925Z,12.70
2024-02-05T02:13:49.338Z,12.95
2024-02-05T02:16:22.393Z,13.10
2024-02-05T02:18:50.912Z,13.19
2024-02-05T02:21:21.452Z,13.28
2024-02-05T02:23:49.245Z,13.05
2024-02-05T02:26:17.226Z,12.96
2024-02-05T02:28:44.716Z,13.13
2024-02-05T02:31:12.312Z,13.02
2024-02-05T02:34:03.481Z,13.11
2024-02-05T02:36:41.906Z,13.18
2024-02-05T02:39:16.923Z,13.23
2024-02-05T02:41:44.698Z,13.28
2024-02-05T02:44:12.799Z,13.10
2024-02-05T02:46:41.626Z,13.17
2024-02-05T02:49:09.058Z,13.28
2024-02-05T02:51:37.028Z,13.56
2024-02-05T02:54:04.724Z,13.58
2024-02-05T02:56:32.419Z,13.85
2024-02-05T02:59:00.007Z,14.05
2024-02-05T03:01:27.445Z,14.17
2024-02-05T03:03:55.498Z,14.16
2024-02-05T03:06:23.588Z,14.20
2024-02-05T03:08:50.921Z,14.23
2024-02-05T03:11:18.260Z,14.26
2024-02-05T03:13:45.926Z,14.26
2024-02-05T03:16:13.326Z,14.33
2024-02-05T03:18:40.762Z,14.26
2024-02-05T03:21:08.499Z,14.19
2024-02-05T03:23:35.940Z,14.21
2024-02-05T03:26:03.518Z,14.19
2024-02-05T03:28:31.293Z,14.14
2024-02-05T03:30:58.930Z,14.23
2024-02-05T03:33:26.265Z,14.20
2024-02-05T03:35:54.199Z,14.19
2024-02-05T03:38:21.568Z,14.23
2024-02-05T03:40:48.922Z,14.31
2024-02-05T03:43:17.066Z,14.26
2024-02-05T03:45:44.506Z,14.24
2024-02-05T03:48:11.947Z,14.21
2024-02-05T03:50:39.634Z,14.33
2024-02-05T03:53:07.147Z,14.21
2024-02-05T03:55:34.504Z,14.23
2024-02-05T03:58:07.283Z,14.23
2024-02-05T04:00:34.799Z,14.05
2024-02-05T04:03:02.567Z,14.10
2024-02-05T04:05:32.472Z,13.88
2024-02-05T04:08:00.129Z,13.91
2024-02-05T04:10:30.799Z,13.76
2024-02-05T04:12:58.312Z,13.82
2024-02-05T04:15:25.684Z,13.96
2024-02-05T04:17:53.614Z,13.82
2024-02-05T04:20:21.068Z,13.92
2024-02-05T04:22:50.281Z,13.86
2024-02-05T04:25:18.404Z,13.89
2024-02-05T04:27:45.951Z,13.75
2024-02-05T04:30:13.598Z,13.71
2024-02-05T04:32:41.303Z,13.71
2024-02-05T04:35:09.334Z,13.64
2024-02-05T04:37:37.027Z,13.46
2024-02-05T04:40:05.290Z,13.46
2024-02-05T04:42:32.668Z,13.50
2024-02-05T04:44:59.992Z,13.48
2024-02-05T04:47:27.721Z,13.30
2024-02-05T04:49:55.154Z,13.37
2024-02-05T04:52:22.791Z,13.20
2024-02-05T04:54:50.534Z,13.26
2024-02-05T04:57:17.914Z,13.05
2024-02-05T04:59:45.259Z,12.87
2024-02-05T05:02:13.099Z,13.01
2024-02-05T05:04:43.388Z,13.12
2024-02-05T05:07:10.931Z,13.01
2024-02-05T05:09:40.841Z,12.71
2024-02-05T05:12:08.504Z,12.79
2024-02-05T05:14:38.266Z,12.50
2024-02-05T05:17:05.868Z,12.80
2024-02-05T05:19:33.330Z,12.66
2024-02-05T05:22:00.796Z,12.77
2024-02-05T05:24:28.498Z,12.63
2024-02-05T05:26:55.886Z,12.72
2024-02-05T05:29:23.523Z,12.89
2024-02-05T05:31:51.149Z,12.81
2024-02-05T05:34:20.621Z,12.63
2024-02-05T05:36:48.157Z,12.54
2024-02-05T05:39:15.805Z,12.89
2024-02-05T05:41:43.113Z,12.86
2024-02-05T05:44:10.504Z,12.74
2024-02-05T05:46:39.209Z,12.82
2024-02-05T05:49:06.921Z,12.64
2024-02-05T05:51:34.360Z,12.49
2024-02-05T05:54:02.041Z,12.62
2024-02-05T05:56:29.815Z,12.68
2024-02-05T05:58:57.937Z,12.90
2024-02-05T06:01:25.739Z,12.73
2024-02-05T06:03:53.396Z,12.65
2024-02-05T06:06:20.789Z,12.64
2024-02-05T06:08:48.129Z,12.77
2024-02-05T06:11:15.769Z,12.89
2024-02-05T06:13:43.357Z,12.90
2024-02-05T06:16:10.959Z,12.93
2024-02-05T06:18:38.814Z,12.91
2024-02-05T06:21:07.867Z,12.75
2024-02-05T06:23:35.303Z,12.62
2024-02-05T06:26:03.471Z,12.87
2024-02-05T06:28:30.938Z,13.02
2024-02-05T06:30:58.396Z,12.89
2024-02-05T06:33:26.327Z,12.93
2024-02-05T06:35:53.782Z,13.02
2024-02-05T06:38:21.142Z,13.06
2024-02-05T06:40:48.824Z,13.15
2024-02-05T06:43:17.273Z,13.10
2024-02-05T06:45:44.765Z,13.17
2024-02-05T06:48:13.089Z,13.07
2024-02-05T06:50:40.481Z,12.56
2024-02-05T06:53:07.975Z,12.85
2024-02-05T06:55:35.713Z,12.98
2024-02-05T06:58:03.198Z,12.93
2024-02-05T07:00:30.580Z,13.27
2024-02-05T07:02:58.310Z,13.16
2024-02-05T07:05:25.733Z,12.90
2024-02-05T07:07:53.234Z,12.74
2024-02-05T07:10:20.935Z,13.26
2024-02-05T07:12:48.412Z,13.42
2024-02-05T07:15:15.848Z,13.52
2024-02-05T07:17:46.155Z,13.35
2024-02-05T07:20:13.971Z,13.36
2024-02-05T07:22:41.840Z,13.16
2024-02-05T07:25:09.768Z,13.13
2024-02-05T07:27:38.855Z,13.38
2024-02-05T07:30:07.211Z,13.41
2024-02-05T07:32:34.901Z,13.39
2024-02-05T07:35:02.952Z,13.53
2024-02-05T07:37:30.813Z,13.35
2024-02-05T07:39:58.534Z,13.19
2024-02-05T07:42:25.903Z,13.10
2024-02-05T07:44:53.250Z,13.19
2024-02-05T07:47:20.843Z,13.48
2024-02-05T07:49:48.227Z,13.44
2024-02-05T07:52:16.062Z,13.67
2024-02-05T07:54:44.157Z,13.44
2024-02-05T07:57:11.566Z,13.54
2024-02-05T07:59:39.010Z,13.76
2024-02-05T08:02:07.421Z,13.91
2024-02-05T08:04:35.197Z,13.97
2024-02-05T08:07:05.539Z,14.43
2024-02-05T08:09:35.877Z,14.52
2024-02-05T08:12:04.171Z,14.39
2024-02-05T08:14:31.525Z,14.30
2024-02-05T08:16:59.125Z,14.41
2024-02-05T08:19:26.996Z,14.22
2024-02-05T08:21:54.530Z,14.52
2024-02-05T08:24:21.946Z,14.40
2024-02-05T08:26:49.596Z,14.68
2024-02-05T08:29:20.059Z,14.83
2024-02-05T08:31:47.414Z,14.26
2024-02-05T08:34:15.313Z,14.42
2024-02-05T08:36:42.801Z,14.28
2024-02-05T08:39:12.079Z,14.44
2024-02-05T08:41:39.758Z,14.14
2024-02-05T08:44:08.225Z,13.95
2024-02-05T08:46:35.758Z,14.25
2024-02-05T08:49:03.472Z,14.06
2024-02-05T08:51:32.262Z,13.66
2024-02-05T08:53:59.688Z,13.98
2024-02-05T08:56:27.275Z,14.06
2024-02-05T08:58:54.615Z,13.93
2024-02-05T09:01:22.160Z,14.21
2024-02-05T09:03:49.977Z,14.22
2024-02-05T09:06:17.555Z,13.94
2024-02-05T09:08:44.939Z,14.18
2024-02-05T09:11:15.201Z,14.11
2024-02-05T09:13:42.987Z,14.21
2024-02-05T09:16:10.705Z,13.97
2024-02-05T09:18:38.865Z,13.94
2024-02-05T09:21:06.611Z,14.06
2024-02-05T09:23:35.690Z,14.17
2024-02-05T09:26:03.381Z,14.16
2024-02-05T09:28:31.672Z,14.09
2024-02-05T09:31:06.424Z,14.34
2024-02-05T09:33:39.959Z,14.25
2024-02-05T09:36:07.768Z,14.69
2024-02-05T09:38:35.103Z,14.69
2024-02-05T09:41:06.941Z,14.79
2024-02-05T09:43:34.696Z,14.99
2024-02-05T09:46:06.354Z,14.63
2024-02-05T09:48:40.828Z,15.30
2024-02-05T09:51:11.519Z,15.15
2024-02-05T09:53:40.762Z,15.34
2024-02-05T09:56:08.896Z,15.17
2024-02-05T09:58:36.328Z,14.99
2024-02-05T10:01:04.515Z,15.10
2024-02-05T10:03:32.608Z,15.03
2024-02-05T10:06:05.063Z,15.23
2024-02-05T10:08:35.814Z,15.38
2024-02-05T10:11:03.828Z,15.53
2024-02-05T10:13:31.664Z,16.02
2024-02-05T10:15:59.326Z,15.71
2024-02-05T10:18:27.021Z,15.61
2024-02-05T10:20:54.436Z,15.69
2024-02-05T10:23:24.718Z,15.38
2024-02-05T10:25:57.472Z,15.40
2024-02-05T10:28:25.281Z,15.50
2024-02-05T10:30:52.996Z,15.67
2024-02-05T10:33:20.539Z,15.21
2024-02-05T10:35:54.796Z,14.99
2024-02-05T10:38:24.234Z,15.12
2024-02-05T10:40:53.024Z,15.22
2024-02-05T10:43:20.422Z,15.16
2024-02-05T10:45:47.807Z,15.07
2024-02-05T10:48:15.528Z,15.31
2024-02-05T10:50:43.886Z,15.32
2024-02-05T10:53:11.614Z,15.23
2024-02-05T10:55:40.731Z,14.95
2024-02-05T10:58:09.014Z,15.34
2024-02-05T11:00:36.510Z,15.16
2024-02-05T11:03:12.616Z,15.10
2024-02-05T11:05:52.400Z,15.27
2024-02-05T11:08:27.773Z,15.67
2024-02-05T11:10:56.789Z,15.81
2024-02-05T11:13:29.883Z,15.69
2024-02-05T11:16:02.702Z,16.23
2024-02-05T11:18:34.980Z,15.92
2024-02-05T11:21:04.405Z,15.88
2024-02-05T11:23:33.644Z,15.91
2024-02-05T11:26:01.270Z,15.86
2024-02-05T11:28:29.153Z,15.77
2024-02-05T11:31:08.830Z,16.13
2024-02-05T11:33:39.688Z,16.20
2024-02-05T11:36:14.263Z,15.97
2024-02-05T11:38:42.865Z,15.78
2024-02-05T11:41:11.021Z,15.74
2024-02-05T11:43:38.568Z,15.99
2024-02-05T11:46:07.194Z,15.96
2024-02-05T11:48:37.638Z,16.12
2024-02-05T11:51:05.493Z,16.19
2024-02-05T11:53:33.099Z,15.87
2024-02-05T11:56:00.895Z,16.27
2024-02-05T11:58:29.207Z,15.84
2024-02-05T12:00:56.802Z,15.77
2024-02-05T12:03:24.656Z,15.66
2024-02-05T12:05:52.316Z,16.04
2024-02-05T12:08:19.858Z,15.84
2024-02-05T12:10:48.615Z,15.77
2024-02-05T12:13:19.273Z,15.66
2024-02-05T12:15:46.849Z,15.26
2024-02-05T12:18:14.872Z,15.26
2024-02-05T12:20:42.408Z,15.47
2024-02-05T12:23:10.120Z,15.58
2024-02-05T12:25:42.338Z,15.38
2024-02-05T12:28:14.587Z,15.29
2024-02-05T12:30:42.296Z,15.00
2024-02-05T12:33:14.850Z,15.30
2024-02-05T12:35:42.532Z,15.03
2024-02-05T12:38:11.008Z,15.28
2024-02-05T12:40:38.949Z,15.03
2024-02-05T12:43:07.006Z,14.81
2024-02-05T12:45:34.684Z,15.10
2024-02-05T12:48:02.685Z,15.14
2024-02-05T12:50:33.553Z,15.34
2024-02-05T12:53:01.541Z,15.42
2024-02-05T12:55:29.436Z,15.34
2024-02-05T12:57:57.228Z,15.38
2024-02-05T13:00:24.952Z,15.20
2024-02-05T13:03:02.306Z,15.52
2024-02-05T13:05:31.493Z,15.15
2024-02-05T13:07:59.902Z,15.29
2024-02-05T13:10:28.756Z,15.16
2024-02-05T13:12:56.936Z,14.87
2024-02-05T13:15:26.585Z,15.12
2024-02-05T13:17:54.063Z,15.41
2024-02-05T13:20:21.733Z,15.51
2024-02-05T13:22:49.279Z,15.45
2024-02-05T13:25:20.460Z,15.61
2024-02-05T13:27:49.611Z,15.58
2024-02-05T13:30:17.113Z,15.33
2024-02-05T13:32:44.817Z,15.28
2024-02-05T13:35:12.548Z,15.36
2024-02-05T13:37:40.093Z,15.36
2024-02-05T13:40:08.865Z,15.40
2024-02-05T13:42:42.611Z,15.23
2024-02-05T13:45:11.717Z,15.34
2024-02-05T13:47:39.461Z,15.33
2024-02-05T13:50:09.424Z,15.29
2024-02-05T13:52:37.159Z,15.49
2024-02-05T13:55:05.358Z,15.53
2024-02-05T13:57:32.745Z,15.39
2024-02-05T14:00:00.127Z,15.44
2024-02-05T14:02:28.944Z,15.54
2024-02-05T14:04:56.767Z,15.07
2024-02-05T14:07:24.381Z,15.43
2024-02-05T14:09:53.163Z,15.17
2024-02-05T14:12:21.340Z,15.20
2024-02-05T14:14:48.752Z,15.43
2024-02-05T14:17:16.144Z,15.11
2024-02-05T14:19:44.413Z,15.23
2024-02-05T14:22:11.923Z,15.35
2024-02-05T14:24:39.302Z,15.42
2024-02-05T14:27:06.952Z,14.87
2024-02-05T14:29:34.385Z,15.06
2024-02-05T14:32:02.106Z,15.00
2024-02-05T14:34:34.174Z,14.98
2024-02-05T14:37:01.730Z,14.64
2024-02-05T14:39:29.178Z,14.52
2024-02-05T14:41:56.998Z,14.63
2024-02-05T14:44:24.355Z,14.63
2024-02-05T14:46:51.775Z,14.94
2024-02-05T14:49:22.169Z,14.99
2024-02-05T14:51:49.692Z,14.80
2024-02-05T14:54:17.208Z,14.65
2024-02-05T14:56:45.168Z,14.53
2024-02-05T14:59:12.579Z,14.61
2024-02-05T15:01:41.916Z,14.74
2024-02-05T15:04:10.068Z,14.98
2024-02-05T15:06:37.538Z,15.12
2024-02-05T15:09:04.908Z,14.98
2024-02-05T15:11:32.530Z,14.85
2024-02-05T15:13:59.880Z,15.09
2024-02-05T15:16:27.264Z,15.04
2024-02-05T15:18:55.042Z,15.02
2024-02-05T15:21:22.434Z,15.17
2024-02-05T15:23:49.741Z,15.18
2024-02-05T15:26:18.699Z,15.17
2024-02-05T15:28:48.133Z,15.03
2024-02-05T15:31:15.742Z,15.39
2024-02-05T15:33:43.710Z,15.01
2024-02-05T15:36:14.540Z,14.78
2024-02-05T15:38:42.325Z,14.78
2024-02-05T15:41:09.960Z,14.79
2024-02-05T15:43:37.439Z,14.98
2024-02-05T15:46:05.006Z,15.11
2024-02-05T15:48:32.927Z,14.97
2024-02-05T15:51:00.472Z,14.87
2024-02-05T15:53:27.816Z,15.00
2024-02-05T15:55:55.440Z,15.15
2024-02-05T15:58:23.375Z,15.03
2024-02-05T16:00:50.847Z,14.91
2024-02-05T16:03:18.593Z,14.87
2024-02-05T16:05:46.153Z,15.05
2024-02-05T16:08:13.905Z,15.01
2024-02-05T16:10:41.687Z,15.01
2024-02-05T16:13:09.140Z,14.91
2024-02-05T16:15:36.466Z,14.50
2024-02-05T16:18:04.955Z,14.47
2024-02-05T16:20:32.931Z,14.62
2024-02-05T16:23:00.826Z,14.55
2024-02-05T16:25:32.002Z,14.33
2024-02-05T16:27:59.765Z,14.63
2024-02-05T16:30:31.316Z,14.75
2024-02-05T16:32:59.460Z,15.00
2024-02-05T16:35:27.108Z,14.94
2024-02-05T16:37:54.662Z,14.84
2024-02-05T16:40:25.579Z,14.90
2024-02-05T16:42:53.278Z,14.92
2024-02-05T16:45:20.784Z,14.89
2024-02-05T16:47:48.565Z,14.93
2024-02-05T16:50:16.190Z,14.84
2024-02-05T16:52:44.819Z,15.08
2024-02-05T16:55:12.534Z,14.88
2024-02-05T16:57:39.907Z,14.77
2024-02-05T17:00:07.905Z,14.93
2024-02-05T17:02:35.514Z,14.66
2024-02-05T17:05:03.095Z,14.81
2024-02-05T17:07:30.694Z,14.74
2024-02-05T17:09:58.429Z,14.84
2024-02-05T17:12:28.160Z,14.67
2024-02-05T17:14:56.304Z,14.59
2024-02-05T17:17:23.944Z,14.47
2024-02-05T17:19:51.437Z,14.41
2024-02-05T17:22:19.109Z,14.18
2024-02-05T17:24:46.912Z,13.96
2024-02-05T17:27:14.320Z,13.81
2024-02-05T17:29:41.842Z,13.87
2024-02-05T17:32:09.590Z,13.63
2024-02-05T17:34:37.044Z,13.81
2024-02-05T17:37:04.995Z,13.60
2024-02-05T17:39:32.615Z,13.80
2024-02-05T17:41:59.984Z,13.94
2024-02-05T17:44:27.373Z,13.75
2024-02-05T17:46:58.938Z,13.62
2024-02-05T17:49:26.842Z,13.80
2024-02-05T17:51:54.593Z,14.00
2024-02-05T17:54:21.975Z,14.00
2024-02-05T17:56:49.508Z,13.92
2024-02-05T17:59:19.395Z,13.58
2024-02-05T18:01:47.063Z,13.69
2024-02-05T18:04:14.987Z,13.74
2024-02-05T18:06:42.517Z,13.90
2024-02-05T18:09:10.669Z,13.82
2024-02-05T18:11:38.304Z,13.94
2024-02-05T18:14:05.854Z,13.92
2024-02-05T18:16:33.559Z,13.93
2024-02-05T18:19:01.387Z,14.01
2024-02-05T18:21:29.238Z,13.93
2024-02-05T18:23:56.664Z,14.07
2024-02-05T18:26:27.083Z,13.79
2024-02-05T18:28:55.833Z,13.85
2024-02-05T18:31:23.490Z,13.95
2024-02-05T18:33:51.398Z,14.02
2024-02-05T18:36:19.224Z,13.96
2024-02-05T18:38:46.696Z,14.11
2024-02-05T18:41:14.342Z,14.09
2024-02-05T18:43:42.330Z,14.08
2024-02-05T18:46:09.814Z,13.96
2024-02-05T18:48:37.528Z,13.77
2024-02-05T18:51:04.973Z,13.88
2024-02-05T18:53:32.746Z,13.99
2024-02-05T18:56:02.046Z,14.24
2024-02-05T18:58:29.533Z,14.07
2024-02-05T19:00:57.036Z,14.10
2024-02-05T19:03:24.747Z,14.11
2024-02-05T19:05:52.383Z,14.20
2024-02-05T19:08:19.783Z,14.16
2024-02-05T19:10:47.582Z,14.29
2024-02-05T19:13:14.980Z,14.25
2024-02-05T19:15:42.414Z,13.88
2024-02-05T19:18:11.938Z,13.97
2024-02-05T19:20:39.402Z,13.94
2024-02-05T19:23:06.773Z,14.18
2024-02-05T19:25:35.657Z,14.07
2024-02-05T19:28:04.165Z,13.95
2024-02-05T19:30:32.918Z,13.88
2024-02-05T19:33:00.697Z,13.78
2024-02-05T19:35:28.068Z,13.86
2024-02-05T19:37:55.376Z,14.14
2024-02-05T19:40:25.094Z,13.90
2024-02-05T19:42:52.765Z,13.64
2024-02-05T19:45:20.573Z,13.97
2024-02-05T19:47:48.279Z,14.02
2024-02-05T19:50:17.521Z,14.01
2024-02-05T19:52:45.105Z,14.15
2024-02-05T19:55:13.751Z,14.16
2024-02-05T19:57:42.141Z,14.35
2024-02-05T20:00:10.210Z,14.31
2024-02-05T20:02:37.939Z,14.24
2024-02-05T20:05:06.022Z,14.25
2024-02-05T20:07:33.808Z,14.16
2024-02-05T20:10:01.549Z,14.02
2024-02-05T20:12:29.089Z,14.18
2024-02-05T20:14:56.494Z,14.23
2024-02-05T20:17:24.257Z,13.93
2024-02-05T20:19:51.847Z,13.87
2024-02-05T20:22:19.277Z,13.82
2024-02-05T20:24:47.397Z,13.98
2024-02-05T20:27:14.901Z,13.90
2024-02-05T20:29:42.295Z,13.61
2024-02-05T20:32:09.926Z,13.57
2024-02-05T20:34:37.318Z,13.65
2024-02-05T20:37:04.741Z,13.70
2024-02-05T20:39:32.780Z,13.93
2024-02-05T20:42:00.243Z,13.93
2024-02-05T20:44:27.599Z,13.86
2024-02-05T20:46:56.495Z,13.63
2024-02-05T20:49:25.046Z,13.71
2024-02-05T20:51:52.583Z,13.43
2024-02-05T20:54:20.370Z,13.63
2024-02-05T20:56:47.773Z,13.69
2024-02-05T20:59:15.196Z,13.83
2024-02-05T21:01:42.906Z,13.66
2024-02-05T21:04:10.660Z,13.70
2024-02-05T21:06:38.205Z,13.80
2024-02-05T21:09:10.559Z,13.73
2024-02-05T21:11:38.252Z,13.67
2024-02-05T21:14:06.590Z,13.71
2024-02-05T21:16:34.018Z,13.83
2024-02-05T21:19:01.565Z,13.74
2024-02-05T21:21:29.370Z,13.45
2024-02-05T21:23:57.497Z,13.52
2024-02-05T21:26:25.155Z,13.67
2024-02-05T21:28:54.218Z,13.72
2024-02-05T21:31:21.684Z,13.71
2024-02-05T21:33:49.156Z,13.73
2024-02-05T21:36:16.827Z,13.34
2024-02-05T21:38:44.190Z,13.45
2024-02-05T21:41:11.681Z,13.56
2024-02-05T21:43:39.485Z,13.62
2024-02-05T21:46:07.644Z,13.73
2024-02-05T21:48:35.296Z,13.94
2024-02-05T21:51:02.933Z,13.89
2024-02-05T21:53:30.280Z,13.87
2024-02-05T21:55:57.714Z,13.77
2024-02-05T21:58:25.438Z,14.05
2024-02-05T22:00:52.909Z,13.94
2024-02-05T22:03:20.590Z,14.05
2024-02-05T22:05:47.978Z,14.10
2024-02-05T22:08:16.811Z,14.15
2024-02-05T22:10:44.548Z,14.08
2024-02-05T22:13:14.967Z,14.12
2024-02-05T22:15:42.360Z,14.17
2024-02-05T22:18:10.147Z,14.25
2024-02-05T22:20:37.561Z,14.26
2024-02-05T22:23:05.020Z,14.26
2024-02-05T22:25:32.685Z,14.14
2024-02-05T22:28:00.328Z,14.24
2024-02-05T22:30:27.832Z,14.26
2024-02-05T22:32:55.446Z,14.31
2024-02-05T22:35:23.140Z,14.30
2024-02-05T22:37:50.936Z,14.25
2024-02-05T22:40:19.418Z,14.24
2024-02-05T22:42:47.082Z,14.21
2024-02-05T22:45:16.044Z,14.18
2024-02-05T22:47:43.704Z,14.19
2024-02-05T22:50:11.372Z,14.17
2024-02-05T22:52:39.012Z,14.07
2024-02-05T22:55:07.137Z,13.99
2024-02-05T22:57:34.607Z,13.95
2024-02-05T23:00:02.846Z,13.89
2024-02-05T23:02:31.837Z,13.84
2024-02-05T23:04:59.297Z,13.78
2024-02-05T23:07:26.998Z,13.68
2024-02-05T23:09:54.918Z,13.59
2024-02-05T23:12:22.311Z,13.48
2024-02-05T23:14:49.652Z,13.33
2024-02-05T23:17:17.288Z,13.32
2024-02-05T23:19:44.742Z,13.16
2024-02-05T23:22:12.234Z,13.12
2024-02-05T23:24:39.889Z,13.02
2024-02-05T23:27:07.277Z,12.93
2024-02-05T23:29:34.614Z,12.89
2024-02-05T23:32:02.667Z,12.42
2024-02-05T23:34:30.153Z,12.50
2024-02-05T23:36:57.552Z,12.55
2024-02-05T23:39:25.228Z,12.50
2024-02-05T23:41:52.656Z,12.48
2024-02-05T23:44:20.041Z,12.44
2024-02-05T23:46:47.911Z,12.47
2024-02-05T23:49:15.728Z,12.43
2024-02-05T23:51:43.574Z,12.30
2024-02-05T23:54:11.262Z,12.38
2024-02-05T23:56:38.708Z,12.33
2024-02-05T23:59:06.121Z,12.43
